sensor_id;sensor_type;location;lat;lon;timestamp;temperature;humidity
79010;DHT22;73031;44.726;37.760;2024-03-25T00:00:13;5.95;80.30
79010;DHT22;73031;44.726;37.760;2024-03-25T00:01:15;5.94;80.10
79010;DHT22;73031;44.726;37.760;2024-03-25T00:02:16;5.95;80.27
79010;DHT22;73031;44.726;37.760;2024-03-25T00:03:17;5.95;80.45
79010;DHT22;73031;44.726;37.760;2024-03-25T00:04:18;5.92;80.46
79010;DHT22;73031;44.726;37.760;2024-03-25T00:05:21;5.94;80.50
79010;DHT22;73031;44.726;37.760;2024-03-25T00:06:26;5.94;80.71
79010;DHT22;73031;44.726;37.760;2024-03-25T00:07:27;5.94;80.69
79010;DHT22;73031;44.726;37.760;2024-03-25T00:08:28;5.92;80.81
79010;DHT22;73031;44.726;37.760;2024-03-25T00:09:29;5.92;80.88
79010;DHT22;73031;44.726;37.760;2024-03-25T00:10:30;5.95;80.92
79010;DHT22;73031;44.726;37.760;2024-03-25T00:11:31;5.94;80.80
79010;DHT22;73031;44.726;37.760;2024-03-25T00:12:32;5.91;80.61
79010;DHT22;73031;44.726;37.760;2024-03-25T00:13:34;5.91;80.58
79010;DHT22;73031;44.726;37.760;2024-03-25T00:14:35;5.86;80.56
79010;DHT22;73031;44.726;37.760;2024-03-25T00:15:37;5.84;80.63
79010;DHT22;73031;44.726;37.760;2024-03-25T00:16:41;5.81;80.47
79010;DHT22;73031;44.726;37.760;2024-03-25T00:17:43;5.79;80.74
79010;DHT22;73031;44.726;37.760;2024-03-25T00:18:44;5.78;80.76
79010;DHT22;73031;44.726;37.760;2024-03-25T00:19:46;5.79;80.81
79010;DHT22;73031;44.726;37.760;2024-03-25T00:20:51;5.75;80.74
79010;DHT22;73031;44.726;37.760;2024-03-25T00:21:52;5.77;80.72
79010;DHT22;73031;44.726;37.760;2024-03-25T00:22:53;5.74;80.74
79010;DHT22;73031;44.726;37.760;2024-03-25T00:23:55;5.72;80.76
79010;DHT22;73031;44.726;37.760;2024-03-25T00:24:59;5.72;80.77
79010;DHT22;73031;44.726;37.760;2024-03-25T00:26:01;5.68;80.80
79010;DHT22;73031;44.726;37.760;2024-03-25T00:27:02;5.68;80.90
79010;DHT22;73031;44.726;37.760;2024-03-25T00:28:04;5.68;80.96
79010;DHT22;73031;44.726;37.760;2024-03-25T00:29:05;5.67;81.00
79010;DHT22;73031;44.726;37.760;2024-03-25T00:30:06;5.67;81.18
79010;DHT22;73031;44.726;37.760;2024-03-25T00:31:07;5.64;81.08
79010;DHT22;73031;44.726;37.760;2024-03-25T00:32:08;5.62;80.93
79010;DHT22;73031;44.726;37.760;2024-03-25T00:33:10;5.61;81.29
79010;DHT22;73031;44.726;37.760;2024-03-25T00:34:11;5.62;81.47
79010;DHT22;73031;44.726;37.760;2024-03-25T00:35:13;5.62;81.57
79010;DHT22;73031;44.726;37.760;2024-03-25T00:36:14;5.64;81.28
79010;DHT22;73031;44.726;37.760;2024-03-25T00:37:15;5.60;81.19
79010;DHT22;73031;44.726;37.760;2024-03-25T00:38:16;5.62;81.30
79010;DHT22;73031;44.726;37.760;2024-03-25T00:39:17;5.61;81.12
79010;DHT22;73031;44.726;37.760;2024-03-25T00:40:19;5.60;81.13
79010;DHT22;73031;44.726;37.760;2024-03-25T00:41:21;5.55;81.26
79010;DHT22;73031;44.726;37.760;2024-03-25T00:42:22;5.54;81.31
79010;DHT22;73031;44.726;37.760;2024-03-25T00:43:23;5.55;81.70
79010;DHT22;73031;44.726;37.760;2024-03-25T00:44:24;5.57;81.69
79010;DHT22;73031;44.726;37.760;2024-03-25T00:45:25;5.54;81.55
79010;DHT22;73031;44.726;37.760;2024-03-25T00:46:31;5.55;81.67
79010;DHT22;73031;44.726;37.760;2024-03-25T00:47:32;5.51;81.71
79010;DHT22;73031;44.726;37.760;2024-03-25T00:48:33;5.52;81.88
79010;DHT22;73031;44.726;37.760;2024-03-25T00:49:34;5.52;81.73
79010;DHT22;73031;44.726;37.760;2024-03-25T00:50:35;5.52;81.99
79010;DHT22;73031;44.726;37.760;2024-03-25T00:51:37;5.52;82.04
79010;DHT22;73031;44.726;37.760;2024-03-25T00:52:38;5.54;82.12
79010;DHT22;73031;44.726;37.760;2024-03-25T00:53:39;5.55;82.10
79010;DHT22;73031;44.726;37.760;2024-03-25T00:54:40;5.55;82.09
79010;DHT22;73031;44.726;37.760;2024-03-25T00:55:41;5.55;81.88
79010;DHT22;73031;44.726;37.760;2024-03-25T00:56:42;5.55;81.75
79010;DHT22;73031;44.726;37.760;2024-03-25T00:57:45;5.50;81.38
79010;DHT22;73031;44.726;37.760;2024-03-25T00:58:46;5.44;81.37
79010;DHT22;73031;44.726;37.760;2024-03-25T00:59:47;5.43;81.48
79010;DHT22;73031;44.726;37.760;2024-03-25T01:00:48;5.40;81.52
79010;DHT22;73031;44.726;37.760;2024-03-25T01:01:49;5.41;81.75
79010;DHT22;73031;44.726;37.760;2024-03-25T01:02:50;5.37;81.64
79010;DHT22;73031;44.726;37.760;2024-03-25T01:03:51;5.34;81.70
79010;DHT22;73031;44.726;37.760;2024-03-25T01:04:52;5.34;81.86
79010;DHT22;73031;44.726;37.760;2024-03-25T01:05:55;5.36;82.14
79010;DHT22;73031;44.726;37.760;2024-03-25T01:06:56;5.36;82.09
79010;DHT22;73031;44.726;37.760;2024-03-25T01:07:57;5.34;81.86
79010;DHT22;73031;44.726;37.760;2024-03-25T01:08:58;5.30;82.01
79010;DHT22;73031;44.726;37.760;2024-03-25T01:09:59;5.30;82.24
79010;DHT22;73031;44.726;37.760;2024-03-25T01:11:00;5.34;82.30
79010;DHT22;73031;44.726;37.760;2024-03-25T01:12:01;5.33;82.33
79010;DHT22;73031;44.726;37.760;2024-03-25T01:13:02;5.31;82.23
79010;DHT22;73031;44.726;37.760;2024-03-25T01:14:03;5.31;82.36
79010;DHT22;73031;44.726;37.760;2024-03-25T01:15:05;5.33;82.55
79010;DHT22;73031;44.726;37.760;2024-03-25T01:16:07;5.34;82.28
79010;DHT22;73031;44.726;37.760;2024-03-25T01:17:08;5.34;82.21
79010;DHT22;73031;44.726;37.760;2024-03-25T01:18:09;5.31;81.93
79010;DHT22;73031;44.726;37.760;2024-03-25T01:19:10;5.31;82.11
79010;DHT22;73031;44.726;37.760;2024-03-25T01:20:11;5.34;82.34
79010;DHT22;73031;44.726;37.760;2024-03-25T01:21:12;5.34;82.25
79010;DHT22;73031;44.726;37.760;2024-03-25T01:22:13;5.33;82.29
79010;DHT22;73031;44.726;37.760;2024-03-25T01:23:15;5.31;82.31
79010;DHT22;73031;44.726;37.760;2024-03-25T01:24:16;5.30;82.55
79010;DHT22;73031;44.726;37.760;2024-03-25T01:25:17;5.31;82.58
79010;DHT22;73031;44.726;37.760;2024-03-25T01:26:18;5.31;82.65
79010;DHT22;73031;44.726;37.760;2024-03-25T01:27:19;5.29;82.52
79010;DHT22;73031;44.726;37.760;2024-03-25T01:28:20;5.30;82.67
79010;DHT22;73031;44.726;37.760;2024-03-25T01:29:21;5.30;82.62
79010;DHT22;73031;44.726;37.760;2024-03-25T01:30:22;5.31;82.78
79010;DHT22;73031;44.726;37.760;2024-03-25T01:31:23;5.30;82.75
79010;DHT22;73031;44.726;37.760;2024-03-25T01:32:24;5.33;82.72
79010;DHT22;73031;44.726;37.760;2024-03-25T01:33:26;5.31;82.64
79010;DHT22;73031;44.726;37.760;2024-03-25T01:34:27;5.29;82.76
79010;DHT22;73031;44.726;37.760;2024-03-25T01:35:28;5.30;82.76
79010;DHT22;73031;44.726;37.760;2024-03-25T01:36:29;5.29;82.83
79010;DHT22;73031;44.726;37.760;2024-03-25T01:37:30;5.30;82.83
79010;DHT22;73031;44.726;37.760;2024-03-25T01:38:31;5.29;82.83
79010;DHT22;73031;44.726;37.760;2024-03-25T01:39:32;5.26;82.74
79010;DHT22;73031;44.726;37.760;2024-03-25T01:40:34;5.29;82.64
79010;DHT22;73031;44.726;37.760;2024-03-25T01:41:35;5.26;82.60
79010;DHT22;73031;44.726;37.760;2024-03-25T01:42:37;5.23;82.71
79010;DHT22;73031;44.726;37.760;2024-03-25T01:43:38;5.27;82.88
79010;DHT22;73031;44.726;37.760;2024-03-25T01:44:39;5.24;82.73
79010;DHT22;73031;44.726;37.760;2024-03-25T01:45:40;5.24;82.79
79010;DHT22;73031;44.726;37.760;2024-03-25T01:46:42;5.20;82.78
79010;DHT22;73031;44.726;37.760;2024-03-25T01:47:44;5.19;82.83
79010;DHT22;73031;44.726;37.760;2024-03-25T01:48:46;5.18;82.93
79010;DHT22;73031;44.726;37.760;2024-03-25T01:49:48;5.20;83.03
79010;DHT22;73031;44.726;37.760;2024-03-25T01:50:50;5.19;83.21
79010;DHT22;73031;44.726;37.760;2024-03-25T01:51:52;5.22;83.34
79010;DHT22;73031;44.726;37.760;2024-03-25T01:52:53;5.22;83.42
79010;DHT22;73031;44.726;37.760;2024-03-25T01:53:55;5.23;83.40
79010;DHT22;73031;44.726;37.760;2024-03-25T01:54:56;5.26;83.48
79010;DHT22;73031;44.726;37.760;2024-03-25T01:55:57;5.23;83.46
79010;DHT22;73031;44.726;37.760;2024-03-25T01:57:00;5.26;83.43
79010;DHT22;73031;44.726;37.760;2024-03-25T01:58:17;5.26;83.27
79010;DHT22;73031;44.726;37.760;2024-03-25T01:59:18;5.23;83.34
79010;DHT22;73031;44.726;37.760;2024-03-25T02:00:20;5.23;83.48
79010;DHT22;73031;44.726;37.760;2024-03-25T02:01:22;5.24;83.57
79010;DHT22;73031;44.726;37.760;2024-03-25T02:02:24;5.26;83.76
79010;DHT22;73031;44.726;37.760;2024-03-25T02:03:25;5.27;83.56
79010;DHT22;73031;44.726;37.760;2024-03-25T02:04:27;5.24;83.39
79010;DHT22;73031;44.726;37.760;2024-03-25T02:05:31;5.26;83.40
79010;DHT22;73031;44.726;37.760;2024-03-25T02:06:33;5.22;83.38
79010;DHT22;73031;44.726;37.760;2024-03-25T02:07:36;5.23;83.48
79010;DHT22;73031;44.726;37.760;2024-03-25T02:08:42;5.23;83.36
79010;DHT22;73031;44.726;37.760;2024-03-25T02:09:44;5.19;83.25
79010;DHT22;73031;44.726;37.760;2024-03-25T02:10:49;5.19;83.11
79010;DHT22;73031;44.726;37.760;2024-03-25T02:11:51;5.19;83.26
79010;DHT22;73031;44.726;37.760;2024-03-25T02:12:54;5.16;83.46
79010;DHT22;73031;44.726;37.760;2024-03-25T02:13:56;5.19;83.49
79010;DHT22;73031;44.726;37.760;2024-03-25T02:14:58;5.16;83.58
79010;DHT22;73031;44.726;37.760;2024-03-25T02:15:59;5.19;83.85
79010;DHT22;73031;44.726;37.760;2024-03-25T02:17:01;5.19;83.71
79010;DHT22;73031;44.726;37.760;2024-03-25T02:18:03;5.18;83.69
79010;DHT22;73031;44.726;37.760;2024-03-25T02:19:04;5.16;83.68
79010;DHT22;73031;44.726;37.760;2024-03-25T02:20:06;5.16;83.70
79010;DHT22;73031;44.726;37.760;2024-03-25T02:21:11;5.18;83.93
79010;DHT22;73031;44.726;37.760;2024-03-25T02:22:12;5.18;83.76
79010;DHT22;73031;44.726;37.760;2024-03-25T02:23:13;5.18;83.76
79010;DHT22;73031;44.726;37.760;2024-03-25T02:24:15;5.18;83.67
79010;DHT22;73031;44.726;37.760;2024-03-25T02:25:17;5.16;83.57
79010;DHT22;73031;44.726;37.760;2024-03-25T02:26:18;5.16;83.58
79010;DHT22;73031;44.726;37.760;2024-03-25T02:27:20;5.16;83.81
79010;DHT22;73031;44.726;37.760;2024-03-25T02:28:21;5.16;83.68
79010;DHT22;73031;44.726;37.760;2024-03-25T02:29:22;5.15;83.59
79010;DHT22;73031;44.726;37.760;2024-03-25T02:30:23;5.16;83.88
79010;DHT22;73031;44.726;37.760;2024-03-25T02:31:24;5.18;83.86
79010;DHT22;73031;44.726;37.760;2024-03-25T02:32:25;5.19;83.75
79010;DHT22;73031;44.726;37.760;2024-03-25T02:33:26;5.19;83.72
79010;DHT22;73031;44.726;37.760;2024-03-25T02:34:27;5.19;83.87
79010;DHT22;73031;44.726;37.760;2024-03-25T02:35:28;5.20;83.96
79010;DHT22;73031;44.726;37.760;2024-03-25T02:36:30;5.23;83.97
79010;DHT22;73031;44.726;37.760;2024-03-25T02:37:31;5.27;84.06
79010;DHT22;73031;44.726;37.760;2024-03-25T02:38:33;5.27;84.02
79010;DHT22;73031;44.726;37.760;2024-03-25T02:39:35;5.27;84.10
79010;DHT22;73031;44.726;37.760;2024-03-25T02:40:37;5.24;83.96
79010;DHT22;73031;44.726;37.760;2024-03-25T02:41:39;5.24;83.88
79010;DHT22;73031;44.726;37.760;2024-03-25T02:42:41;5.23;83.87
79010;DHT22;73031;44.726;37.760;2024-03-25T02:43:42;5.24;83.90
79010;DHT22;73031;44.726;37.760;2024-03-25T02:44:44;5.19;83.34
79010;DHT22;73031;44.726;37.760;2024-03-25T02:45:45;5.16;83.08
79010;DHT22;73031;44.726;37.760;2024-03-25T02:46:47;5.12;83.15
79010;DHT22;73031;44.726;37.760;2024-03-25T02:47:50;5.11;83.27
79010;DHT22;73031;44.726;37.760;2024-03-25T02:48:51;5.12;83.40
79010;DHT22;73031;44.726;37.760;2024-03-25T02:49:53;5.11;83.47
79010;DHT22;73031;44.726;37.760;2024-03-25T02:50:54;5.12;83.51
79010;DHT22;73031;44.726;37.760;2024-03-25T02:51:56;5.12;83.58
79010;DHT22;73031;44.726;37.760;2024-03-25T02:52:57;5.08;83.45
79010;DHT22;73031;44.726;37.760;2024-03-25T02:53:58;5.05;83.37
79010;DHT22;73031;44.726;37.760;2024-03-25T02:54:59;5.05;83.46
79010;DHT22;73031;44.726;37.760;2024-03-25T02:56:00;5.05;83.42
79010;DHT22;73031;44.726;37.760;2024-03-25T02:57:02;5.05;83.41
79010;DHT22;73031;44.726;37.760;2024-03-25T02:58:03;5.00;83.33
79010;DHT22;73031;44.726;37.760;2024-03-25T02:59:04;4.97;83.32
79010;DHT22;73031;44.726;37.760;2024-03-25T03:00:05;4.96;83.25
79010;DHT22;73031;44.726;37.760;2024-03-25T03:01:07;4.96;83.30
79010;DHT22;73031;44.726;37.760;2024-03-25T03:02:08;4.92;83.33
79010;DHT22;73031;44.726;37.760;2024-03-25T03:03:09;4.91;83.45
79010;DHT22;73031;44.726;37.760;2024-03-25T03:04:10;4.93;83.49
79010;DHT22;73031;44.726;37.760;2024-03-25T03:05:11;4.91;83.51
79010;DHT22;73031;44.726;37.760;2024-03-25T03:06:12;4.91;83.60
79010;DHT22;73031;44.726;37.760;2024-03-25T03:07:14;4.92;83.56
79010;DHT22;73031;44.726;37.760;2024-03-25T03:08:15;4.85;83.40
79010;DHT22;73031;44.726;37.760;2024-03-25T03:09:16;4.86;83.50
79010;DHT22;73031;44.726;37.760;2024-03-25T03:10:17;4.84;83.48
79010;DHT22;73031;44.726;37.760;2024-03-25T03:11:18;4.82;83.60
79010;DHT22;73031;44.726;37.760;2024-03-25T03:12:19;4.85;83.91
79010;DHT22;73031;44.726;37.760;2024-03-25T03:13:20;4.84;83.70
79010;DHT22;73031;44.726;37.760;2024-03-25T03:14:21;4.86;83.58
79010;DHT22;73031;44.726;37.760;2024-03-25T03:15:22;4.86;83.81
79010;DHT22;73031;44.726;37.760;2024-03-25T03:16:23;4.89;83.98
79010;DHT22;73031;44.726;37.760;2024-03-25T03:17:25;4.89;84.04
79010;DHT22;73031;44.726;37.760;2024-03-25T03:18:27;4.91;84.02
79010;DHT22;73031;44.726;37.760;2024-03-25T03:19:28;4.93;84.33
79010;DHT22;73031;44.726;37.760;2024-03-25T03:20:29;4.99;84.24
79010;DHT22;73031;44.726;37.760;2024-03-25T03:21:31;5.00;84.29
79010;DHT22;73031;44.726;37.760;2024-03-25T03:22:32;5.02;84.22
79010;DHT22;73031;44.726;37.760;2024-03-25T03:23:33;5.03;84.08
79010;DHT22;73031;44.726;37.760;2024-03-25T03:24:34;5.05;83.97
79010;DHT22;73031;44.726;37.760;2024-03-25T03:25:35;5.00;83.40
79010;DHT22;73031;44.726;37.760;2024-03-25T03:26:36;4.97;83.20
79010;DHT22;73031;44.726;37.760;2024-03-25T03:27:37;4.96;83.08
79010;DHT22;73031;44.726;37.760;2024-03-25T03:28:38;4.95;82.91
79010;DHT22;73031;44.726;37.760;2024-03-25T03:29:39;4.92;82.95
79010;DHT22;73031;44.726;37.760;2024-03-25T03:30:41;4.92;83.05
79010;DHT22;73031;44.726;37.760;2024-03-25T03:31:43;4.93;83.07
79010;DHT22;73031;44.726;37.760;2024-03-25T03:32:44;4.93;83.18
79010;DHT22;73031;44.726;37.760;2024-03-25T03:33:45;4.93;83.15
79010;DHT22;73031;44.726;37.760;2024-03-25T03:34:46;4.93;83.45
79010;DHT22;73031;44.726;37.760;2024-03-25T03:35:47;4.99;83.46
79010;DHT22;73031;44.726;37.760;2024-03-25T03:36:48;5.00;83.52
79010;DHT22;73031;44.726;37.760;2024-03-25T03:37:49;5.00;83.35
79010;DHT22;73031;44.726;37.760;2024-03-25T03:38:51;5.00;83.75
79010;DHT22;73031;44.726;37.760;2024-03-25T03:39:52;5.12;84.43
79010;DHT22;73031;44.726;37.760;2024-03-25T03:41:03;5.20;84.60
79010;DHT22;73031;44.726;37.760;2024-03-25T03:42:07;5.24;84.54
79010;DHT22;73031;44.726;37.760;2024-03-25T03:43:08;5.27;84.32
79010;DHT22;73031;44.726;37.760;2024-03-25T03:44:09;5.33;84.56
79010;DHT22;73031;44.726;37.760;2024-03-25T03:45:10;5.40;84.31
79010;DHT22;73031;44.726;37.760;2024-03-25T03:46:13;5.43;84.29
79010;DHT22;73031;44.726;37.760;2024-03-25T03:47:14;5.46;84.22
79010;DHT22;73031;44.726;37.760;2024-03-25T03:48:15;5.50;83.69
79010;DHT22;73031;44.726;37.760;2024-03-25T03:49:17;5.51;83.18
79010;DHT22;73031;44.726;37.760;2024-03-25T03:50:18;5.57;83.45
79010;DHT22;73031;44.726;37.760;2024-03-25T03:51:19;5.61;83.40
79010;DHT22;73031;44.726;37.760;2024-03-25T03:52:20;5.65;83.23
79010;DHT22;73031;44.726;37.760;2024-03-25T03:53:22;5.72;82.94
79010;DHT22;73031;44.726;37.760;2024-03-25T03:54:24;5.75;82.54
79010;DHT22;73031;44.726;37.760;2024-03-25T03:55:25;5.79;82.44
79010;DHT22;73031;44.726;37.760;2024-03-25T03:56:26;5.91;82.99
79010;DHT22;73031;44.726;37.760;2024-03-25T03:57:27;5.98;82.00
79010;DHT22;73031;44.726;37.760;2024-03-25T03:58:28;5.98;81.52
79010;DHT22;73031;44.726;37.760;2024-03-25T03:59:29;6.07;80.94
79010;DHT22;73031;44.726;37.760;2024-03-25T04:00:34;6.50;80.09
79010;DHT22;73031;44.726;37.760;2024-03-25T04:01:35;6.93;78.59
79010;DHT22;73031;44.726;37.760;2024-03-25T04:02:36;7.23;77.10
79010;DHT22;73031;44.726;37.760;2024-03-25T04:03:38;7.61;76.10
79010;DHT22;73031;44.726;37.760;2024-03-25T04:04:40;7.79;74.95
79010;DHT22;73031;44.726;37.760;2024-03-25T04:05:41;8.10;73.98
79010;DHT22;73031;44.726;37.760;2024-03-25T04:06:42;8.67;72.34
79010;DHT22;73031;44.726;37.760;2024-03-25T04:07:43;9.26;69.88
79010;DHT22;73031;44.726;37.760;2024-03-25T04:08:44;9.72;68.33
79010;DHT22;73031;44.726;37.760;2024-03-25T04:09:45;9.96;66.63
79010;DHT22;73031;44.726;37.760;2024-03-25T04:10:46;10.12;65.95
79010;DHT22;73031;44.726;37.760;2024-03-25T04:11:47;10.30;64.75
79010;DHT22;73031;44.726;37.760;2024-03-25T04:12:49;10.29;64.72
79010;DHT22;73031;44.726;37.760;2024-03-25T04:13:50;10.41;64.89
79010;DHT22;73031;44.726;37.760;2024-03-25T04:14:52;10.52;63.94
79010;DHT22;73031;44.726;37.760;2024-03-25T04:16:01;10.76;63.60
79010;DHT22;73031;44.726;37.760;2024-03-25T04:17:03;11.02;62.60
79010;DHT22;73031;44.726;37.760;2024-03-25T04:18:04;11.35;62.87
79010;DHT22;73031;44.726;37.760;2024-03-25T04:19:06;11.79;60.68
79010;DHT22;73031;44.726;37.760;2024-03-25T04:20:07;12.12;59.59
79010;DHT22;73031;44.726;37.760;2024-03-25T04:21:12;12.40;58.88
79010;DHT22;73031;44.726;37.760;2024-03-25T04:22:13;12.49;57.71
79010;DHT22;73031;44.726;37.760;2024-03-25T04:23:14;12.83;57.14
79010;DHT22;73031;44.726;37.760;2024-03-25T04:24:15;13.48;55.68
79010;DHT22;73031;44.726;37.760;2024-03-25T04:25:16;14.12;54.60
79010;DHT22;73031;44.726;37.760;2024-03-25T04:26:18;14.72;53.94
79010;DHT22;73031;44.726;37.760;2024-03-25T04:27:19;15.30;52.34
79010;DHT22;73031;44.726;37.760;2024-03-25T04:28:23;15.83;49.93
79010;DHT22;73031;44.726;37.760;2024-03-25T04:29:28;16.27;48.14
79010;DHT22;73031;44.726;37.760;2024-03-25T04:30:30;16.44;47.66
79010;DHT22;73031;44.726;37.760;2024-03-25T04:31:31;16.51;47.18
79010;DHT22;73031;44.726;37.760;2024-03-25T04:32:32;16.95;46.10
79010;DHT22;73031;44.726;37.760;2024-03-25T04:33:34;17.37;44.79
79010;DHT22;73031;44.726;37.760;2024-03-25T04:34:35;17.74;44.13
79010;DHT22;73031;44.726;37.760;2024-03-25T04:35:36;18.07;43.45
79010;DHT22;73031;44.726;37.760;2024-03-25T04:36:37;18.48;42.62
79010;DHT22;73031;44.726;37.760;2024-03-25T04:37:38;18.79;42.02
79010;DHT22;73031;44.726;37.760;2024-03-25T04:38:40;18.94;41.75
79010;DHT22;73031;44.726;37.760;2024-03-25T04:39:41;19.16;41.44
79010;DHT22;73031;44.726;37.760;2024-03-25T04:40:43;19.46;40.41
79010;DHT22;73031;44.726;37.760;2024-03-25T04:41:44;19.57;40.14
79010;DHT22;73031;44.726;37.760;2024-03-25T04:42:46;19.78;39.15
79010;DHT22;73031;44.726;37.760;2024-03-25T04:43:48;19.89;38.94
79010;DHT22;73031;44.726;37.760;2024-03-25T04:44:49;19.93;38.57
79010;DHT22;73031;44.726;37.760;2024-03-25T04:45:51;19.98;38.49
79010;DHT22;73031;44.726;37.760;2024-03-25T04:46:52;20.13;38.90
79010;DHT22;73031;44.726;37.760;2024-03-25T04:47:53;20.41;37.93
79010;DHT22;73031;44.726;37.760;2024-03-25T04:48:54;20.57;38.51
79010;DHT22;73031;44.726;37.760;2024-03-25T04:49:55;20.85;37.66
79010;DHT22;73031;44.726;37.760;2024-03-25T04:50:56;21.18;37.30
79010;DHT22;73031;44.726;37.760;2024-03-25T04:51:57;21.50;35.91
79010;DHT22;73031;44.726;37.760;2024-03-25T04:52:58;21.46;35.76
79010;DHT22;73031;44.726;37.760;2024-03-25T04:54:00;21.49;36.37
79010;DHT22;73031;44.726;37.760;2024-03-25T04:55:01;21.82;36.07
79010;DHT22;73031;44.726;37.760;2024-03-25T04:56:02;22.24;34.95
79010;DHT22;73031;44.726;37.760;2024-03-25T04:57:04;22.56;34.92
79010;DHT22;73031;44.726;37.760;2024-03-25T04:58:06;22.92;34.46
79010;DHT22;73031;44.726;37.760;2024-03-25T04:59:07;23.23;34.10
79010;DHT22;73031;44.726;37.760;2024-03-25T05:00:09;23.57;33.02
79010;DHT22;73031;44.726;37.760;2024-03-25T05:01:11;23.84;32.30
79010;DHT22;73031;44.726;37.760;2024-03-25T05:02:13;24.00;32.73
79010;DHT22;73031;44.726;37.760;2024-03-25T05:03:14;24.30;32.82
79010;DHT22;73031;44.726;37.760;2024-03-25T05:04:15;24.65;32.64
79010;DHT22;73031;44.726;37.760;2024-03-25T05:05:16;25.02;31.18
79010;DHT22;73031;44.726;37.760;2024-03-25T05:06:17;25.29;31.15
79010;DHT22;73031;44.726;37.760;2024-03-25T05:07:18;25.28;30.63
79010;DHT22;73031;44.726;37.760;2024-03-25T05:08:20;25.49;30.13
79010;DHT22;73031;44.726;37.760;2024-03-25T05:09:21;25.77;29.54
79010;DHT22;73031;44.726;37.760;2024-03-25T05:10:22;26.04;29.14
79010;DHT22;73031;44.726;37.760;2024-03-25T05:11:23;26.14;29.36
79010;DHT22;73031;44.726;37.760;2024-03-25T05:12:24;26.11;29.12
79010;DHT22;73031;44.726;37.760;2024-03-25T05:13:30;26.11;29.43
79010;DHT22;73031;44.726;37.760;2024-03-25T05:14:31;26.39;28.77
79010;DHT22;73031;44.726;37.760;2024-03-25T05:15:32;26.79;28.65
79010;DHT22;73031;44.726;37.760;2024-03-25T05:16:33;27.05;28.02
79010;DHT22;73031;44.726;37.760;2024-03-25T05:17:34;27.14;27.69
79010;DHT22;73031;44.726;37.760;2024-03-25T05:18:36;27.05;27.23
79010;DHT22;73031;44.726;37.760;2024-03-25T05:19:37;26.84;27.88
79010;DHT22;73031;44.726;37.760;2024-03-25T05:20:38;26.81;27.97
79010;DHT22;73031;44.726;37.760;2024-03-25T05:21:39;26.83;27.69
79010;DHT22;73031;44.726;37.760;2024-03-25T05:22:40;26.86;27.27
79010;DHT22;73031;44.726;37.760;2024-03-25T05:23:41;26.88;27.36
79010;DHT22;73031;44.726;37.760;2024-03-25T05:24:43;27.01;27.74
79010;DHT22;73031;44.726;37.760;2024-03-25T05:25:44;27.24;27.10
79010;DHT22;73031;44.726;37.760;2024-03-25T05:26:45;27.25;26.73
79010;DHT22;73031;44.726;37.760;2024-03-25T05:27:46;27.47;26.81
79010;DHT22;73031;44.726;37.760;2024-03-25T05:28:53;27.88;26.19
79010;DHT22;73031;44.726;37.760;2024-03-25T05:29:54;28.08;25.66
79010;DHT22;73031;44.726;37.760;2024-03-25T05:30:55;27.88;25.89
79010;DHT22;73031;44.726;37.760;2024-03-25T05:32:00;27.94;26.02
79010;DHT22;73031;44.726;37.760;2024-03-25T05:33:01;28.12;25.91
79010;DHT22;73031;44.726;37.760;2024-03-25T05:34:02;28.50;25.58
79010;DHT22;73031;44.726;37.760;2024-03-25T05:35:10;29.00;24.98
79010;DHT22;73031;44.726;37.760;2024-03-25T05:36:11;29.18;24.49
79010;DHT22;73031;44.726;37.760;2024-03-25T05:37:12;29.18;24.60
79010;DHT22;73031;44.726;37.760;2024-03-25T05:38:13;29.29;24.24
79010;DHT22;73031;44.726;37.760;2024-03-25T05:39:14;29.16;24.29
79010;DHT22;73031;44.726;37.760;2024-03-25T05:40:16;29.45;24.57
79010;DHT22;73031;44.726;37.760;2024-03-25T05:41:17;29.93;23.73
79010;DHT22;73031;44.726;37.760;2024-03-25T05:42:18;30.14;23.26
79010;DHT22;73031;44.726;37.760;2024-03-25T05:43:19;30.43;23.10
79010;DHT22;73031;44.726;37.760;2024-03-25T05:44:23;31.01;21.10
79010;DHT22;73031;44.726;37.760;2024-03-25T05:45:24;31.03;22.11
79010;DHT22;73031;44.726;37.760;2024-03-25T05:46:26;31.08;21.57
79010;DHT22;73031;44.726;37.760;2024-03-25T05:47:28;31.01;20.69
79010;DHT22;73031;44.726;37.760;2024-03-25T05:48:30;30.83;21.85
79010;DHT22;73031;44.726;37.760;2024-03-25T05:49:31;30.83;21.09
79010;DHT22;73031;44.726;37.760;2024-03-25T05:50:32;30.70;21.22
79010;DHT22;73031;44.726;37.760;2024-03-25T05:51:34;30.82;20.48
79010;DHT22;73031;44.726;37.760;2024-03-25T05:52:35;30.84;20.63
79010;DHT22;73031;44.726;37.760;2024-03-25T05:53:36;30.95;19.98
79010;DHT22;73031;44.726;37.760;2024-03-25T05:54:39;30.86;19.99
79010;DHT22;73031;44.726;37.760;2024-03-25T05:55:40;30.75;20.61
79010;DHT22;73031;44.726;37.760;2024-03-25T05:56:41;30.55;20.22
79010;DHT22;73031;44.726;37.760;2024-03-25T05:57:42;30.63;20.79
79010;DHT22;73031;44.726;37.760;2024-03-25T05:58:43;31.17;20.79
79010;DHT22;73031;44.726;37.760;2024-03-25T05:59:44;31.56;20.41
79010;DHT22;73031;44.726;37.760;2024-03-25T06:00:49;31.69;18.95
79010;DHT22;73031;44.726;37.760;2024-03-25T06:01:50;31.69;19.73
79010;DHT22;73031;44.726;37.760;2024-03-25T06:02:51;31.28;19.48
79010;DHT22;73031;44.726;37.760;2024-03-25T06:03:54;30.94;20.41
79010;DHT22;73031;44.726;37.760;2024-03-25T06:04:56;31.48;20.17
79010;DHT22;73031;44.726;37.760;2024-03-25T06:05:58;31.50;19.69
79010;DHT22;73031;44.726;37.760;2024-03-25T06:06:59;32.13;19.81
79010;DHT22;73031;44.726;37.760;2024-03-25T06:08:00;32.63;19.50
79010;DHT22;73031;44.726;37.760;2024-03-25T06:09:01;33.24;17.86
79010;DHT22;73031;44.726;37.760;2024-03-25T06:10:03;33.00;18.40
79010;DHT22;73031;44.726;37.760;2024-03-25T06:11:04;32.49;18.16
79010;DHT22;73031;44.726;37.760;2024-03-25T06:12:06;32.09;18.63
79010;DHT22;73031;44.726;37.760;2024-03-25T06:13:07;32.13;19.35
79010;DHT22;73031;44.726;37.760;2024-03-25T06:14:08;32.61;19.09
79010;DHT22;73031;44.726;37.760;2024-03-25T06:15:10;32.62;18.53
79010;DHT22;73031;44.726;37.760;2024-03-25T06:16:12;32.80;18.27
79010;DHT22;73031;44.726;37.760;2024-03-25T06:17:13;32.58;18.32
79010;DHT22;73031;44.726;37.760;2024-03-25T06:18:14;32.66;19.40
79010;DHT22;73031;44.726;37.760;2024-03-25T06:19:15;32.99;17.66
79010;DHT22;73031;44.726;37.760;2024-03-25T06:20:17;32.86;17.59
79010;DHT22;73031;44.726;37.760;2024-03-25T06:21:18;32.63;17.88
79010;DHT22;73031;44.726;37.760;2024-03-25T06:22:19;32.48;18.36
79010;DHT22;73031;44.726;37.760;2024-03-25T06:23:26;32.68;18.12
79010;DHT22;73031;44.726;37.760;2024-03-25T06:24:31;32.41;18.36
79010;DHT22;73031;44.726;37.760;2024-03-25T06:25:32;32.28;19.12
79010;DHT22;73031;44.726;37.760;2024-03-25T06:26:34;33.14;19.48